Time;durP1;ratioP1;P1;durP2;ratioP2;P2;SDS_P1;SDS_P2;PMS_P1;PMS_P2;Temp;Humidity;BMP_temperature;BMP_pressure;BME280_temperature;BME280_humidity;BME280_pressure;Samples;Min_cycle;Max_cycle;Signal;HPM_P1;HPM_P2
2022/01/29 00:00:21;;;;;;;8.83;2.63;;;;;;;4.05;98.35;101755.66;5070109;28;20267;-74
2022/01/29 00:02:46;;;;;;;10.17;4.07;;;;;;;4.07;98.62;101760.84;5070114;28;20563;-73
2022/01/29 00:05:12;;;;;;;3.23;3.00;;;;;;;4.11;98.99;101767.41;5071131;28;20648;-73
2022/01/29 00:07:41;;;;;;;7.13;5.17;;;;;;;4.13;99.35;101747.19;5069942;28;20179;-74
2022/01/29 00:10:07;;;;;;;7.13;2.43;;;;;;;4.17;99.68;101742.94;5069921;28;20170;-75
2022/01/29 00:12:33;;;;;;;4.33;3.10;;;;;;;4.21;100.00;101742.50;5071418;28;20181;-74
2022/01/29 00:14:59;;;;;;;3.20;2.97;;;;;;;4.21;100.00;101740.59;5071036;28;20581;-76
2022/01/29 00:17:24;;;;;;;8.90;3.23;;;;;;;4.22;100.00;101744.13;5071278;28;20168;-75
2022/01/29 00:19:50;;;;;;;5.37;2.83;;;;;;;4.22;100.00;101728.72;5071165;28;20248;-74
2022/01/29 00:22:15;;;;;;;6.80;4.20;;;;;;;4.22;100.00;101730.59;5070629;28;20575;-76
2022/01/29 00:24:43;;;;;;;3.97;3.67;;;;;;;4.24;100.00;101714.97;5070896;28;20190;-75
2022/01/29 00:27:10;;;;;;;7.30;6.57;;;;;;;4.29;100.00;101713.16;5069817;28;20604;-75
2022/01/29 00:29:38;;;;;;;3.93;3.57;;;;;;;4.30;100.00;101714.81;5069982;28;20685;-74
2022/01/29 00:32:05;;;;;;;3.03;2.73;;;;;;;4.33;100.00;101703.50;5070039;28;20182;-73
2022/01/29 00:34:31;;;;;;;9.33;7.97;;;;;;;4.36;100.00;101696.81;5071738;28;20175;-75
2022/01/29 00:36:56;;;;;;;9.73;7.77;;;;;;;4.37;100.00;101684.94;5070722;28;20849;-73
2022/01/29 00:39:22;;;;;;;7.27;4.50;;;;;;;4.38;100.00;101690.09;5077364;28;20289;-74
2022/01/29 00:41:48;;;;;;;11.77;9.13;;;;;;;4.40;100.00;101687.97;5075919;28;20554;-74
2022/01/29 00:44:14;;;;;;;6.20;5.63;;;;;;;4.39;100.00;101686.34;5074488;28;20166;-74
2022/01/29 00:46:41;;;;;;;4.70;2.17;;;;;;;4.41;100.00;101688.81;5070614;28;20556;-73
2022/01/29 00:49:08;;;;;;;5.07;4.60;;;;;;;4.42;100.00;101671.50;5069475;28;20178;-74
2022/01/29 00:51:33;;;;;;;10.60;7.70;;;;;;;4.43;100.00;101670.44;5058356;28;20653;-73
2022/01/29 00:53:58;;;;;;;6.27;5.77;;;;;;;4.44;100.00;101662.09;5068763;28;20210;-74
2022/01/29 00:56:23;;;;;;;7.03;6.30;;;;;;;4.48;100.00;101668.69;5074493;28;20174;-74
2022/01/29 00:58:49;;;;;;;9.90;7.43;;;;;;;4.48;100.00;101668.69;5076089;28;20207;-73
2022/01/29 01:01:14;;;;;;;12.70;8.67;;;;;;;4.49;100.00;101653.25;5080521;28;20268;-74
2022/01/29 01:03:40;;;;;;;9.70;4.93;;;;;;;4.51;100.00;101656.53;5083151;28;20177;-74
2022/01/29 01:06:05;;;;;;;10.03;7.10;;;;;;;4.53;100.00;101651.72;5087050;28;20193;-75
2022/01/29 01:08:30;;;;;;;16.10;11.87;;;;;;;4.53;100.00;101643.59;5081427;28;20701;-74
2022/01/29 01:10:56;;;;;;;4.97;4.40;;;;;;;4.54;100.00;101636.28;5090718;28;20211;-74
2022/01/29 01:13:21;;;;;;;7.40;6.10;;;;;;;4.55;100.00;101641.47;5090844;28;20226;-75
2022/01/29 01:15:46;;;;;;;9.70;6.30;;;;;;;4.58;100.00;101623.91;5090511;28;20166;-74
2022/01/29 01:18:12;;;;;;;5.73;4.10;;;;;;;4.59;100.00;101628.25;5083478;28;20183;-74
2022/01/29 01:20:37;;;;;;;4.67;3.33;;;;;;;4.60;100.00;101621.78;5085821;28;20261;-74
2022/01/29 01:23:03;;;;;;;14.03;9.10;;;;;;;4.60;100.00;101617.19;5083155;28;20178;-74
2022/01/29 01:25:28;;;;;;;4.07;3.87;;;;;;;4.63;100.00;101622.13;5085681;28;20177;-73
2022/01/29 01:27:55;;;;;;;4.63;4.23;;;;;;;4.67;100.00;101612.47;5075228;28;20188;-75
2022/01/29 01:30:21;;;;;;;5.80;5.23;;;;;;;4.67;100.00;101612.47;5077731;28;20178;-73
2022/01/29 01:32:46;;;;;;;6.77;5.80;;;;;;;4.70;100.00;101613.84;5071943;28;20874;-75
2022/01/29 01:35:23;;;;;;;2.13;1.83;;;;;;;4.72;100.00;101615.25;5078760;28;20178;-73
2022/01/29 01:37:57;;;;;;;3.97;3.60;;;;;;;4.75;100.00;101606.63;5054202;28;20171;-73
2022/01/29 01:40:24;;;;;;;6.27;5.63;;;;;;;4.74;100.00;101601.47;5073130;28;20202;-74
2022/01/29 01:42:51;;;;;;;18.17;8.33;;;;;;;4.77;100.00;101598.25;5085913;28;20649;-74
2022/01/29 01:45:16;;;;;;;8.87;5.37;;;;;;;4.82;100.00;101597.56;5092763;28;20177;-73
2022/01/29 01:47:42;;;;;;;6.80;5.73;;;;;;;4.86;100.00;101587.88;5079533;28;20182;-73
2022/01/29 01:50:09;;;;;;;4.90;3.63;;;;;;;4.88;100.00;101588.44;5082113;28;20190;-73
2022/01/29 01:52:34;;;;;;;5.20;4.60;;;;;;;4.87;100.00;101570.56;5083540;28;20163;-76
2022/01/29 01:55:00;;;;;;;6.17;5.57;;;;;;;4.86;100.00;101567.03;5094396;28;20530;-74
2022/01/29 01:57:25;;;;;;;13.90;7.30;;;;;;;4.89;100.00;101557.59;5092479;28;20588;-74
2022/01/29 01:59:51;;;;;;;6.20;5.60;;;;;;;4.89;100.00;101553.00;5092585;28;20202;-74
2022/01/29 02:02:16;;;;;;;12.67;8.67;;;;;;;4.93;100.00;101548.75;5094048;28;20189;-74
2022/01/29 02:04:41;;;;;;;3.60;3.13;;;;;;;4.94;100.00;101546.84;5093878;28;20650;-76
2022/01/29 02:07:07;;;;;;;9.87;7.33;;;;;;;4.96;100.00;101534.72;5092570;28;20281;-74
2022/01/29 02:09:33;;;;;;;6.10;5.10;;;;;;;4.96;100.00;101542.00;5093863;28;20170;-74
2022/01/29 02:12:02;;;;;;;6.23;5.63;;;;;;;4.94;100.00;101541.44;5093788;28;20162;-74
2022/01/29 02:14:31;;;;;;;4.33;3.93;;;;;;;4.95;100.00;101519.53;5093573;28;20648;-73
2022/01/29 02:16:58;;;;;;;4.07;3.67;;;;;;;5.00;100.00;101524.19;5092444;28;20209;-74
2022/01/29 02:19:23;;;;;;;4.37;3.47;;;;;;;5.00;100.00;101511.47;5074197;28;20201;-74
2022/01/29 02:21:49;;;;;;;6.30;5.70;;;;;;;5.00;100.00;101502.53;5073719;28;20175;-74
2022/01/29 02:24:14;;;;;;;6.80;5.80;;;;;;;4.99;100.00;101499.00;5073220;28;20179;-74
2022/01/29 02:26:40;;;;;;;7.70;4.93;;;;;;;5.00;100.00;101480.88;5073090;28;20590;-75
2022/01/29 02:29:05;;;;;;;3.40;3.20;;;;;;;5.01;100.00;101474.38;5071483;28;20175;-74
2022/01/29 02:31:31;;;;;;;7.90;5.70;;;;;;;4.99;100.00;101476.53;5071855;28;20339;-75
2022/01/29 02:33:57;;;;;;;5.87;5.37;;;;;;;4.98;100.00;101474.88;5071767;28;20615;-74
2022/01/29 02:36:22;;;;;;;6.27;3.90;;;;;;;4.96;100.00;101458.88;5071765;28;20261;-74
2022/01/29 02:38:48;;;;;;;14.57;4.53;;;;;;;5.00;100.00;101472.75;5073049;28;20666;-74
2022/01/29 02:41:14;;;;;;;7.87;7.10;;;;;;;5.00;100.00;101467.31;5071759;28;20430;-75
2022/01/29 02:46:21;;;;;;;4.60;4.17;;;;;;;5.02;100.00;101457.06;5073139;28;20178;-73
2022/01/29 02:48:51;;;;;;;6.57;4.50;;;;;;;5.03;100.00;101453.28;5072976;28;20177;-74
2022/01/29 02:51:16;;;;;;;8.93;5.93;;;;;;;5.03;100.00;101442.44;5072790;28;20392;-73
2022/01/29 02:53:43;;;;;;;4.20;3.90;;;;;;;5.01;100.00;101437.28;5072815;28;20163;-76
2022/01/29 02:56:09;;;;;;;4.63;4.07;;;;;;;5.01;100.00;101439.16;5070975;28;20178;-76
2022/01/29 02:58:35;;;;;;;5.77;5.20;;;;;;;5.01;100.00;101409.38;5071264;28;20209;-76
2022/01/29 03:01:00;;;;;;;14.80;6.87;;;;;;;5.00;100.00;101410.44;5071381;28;20174;-74
2022/01/29 03:03:25;;;;;;;6.33;5.63;;;;;;;5.00;100.00;101413.97;5071477;28;20266;-73
2022/01/29 03:05:51;;;;;;;17.93;5.63;;;;;;;4.98;100.00;101401.75;5072354;28;20570;-74
2022/01/29 03:08:17;;;;;;;14.80;7.53;;;;;;;4.94;100.00;101389.81;5071085;28;20171;-77
2022/01/29 03:10:42;;;;;;;4.50;3.27;;;;;;;4.90;100.00;101394.06;5071106;28;20235;-73
2022/01/29 03:13:09;;;;;;;10.57;5.80;;;;;;;4.86;100.00;101379.41;5072451;28;20216;-76
2022/01/29 03:15:35;;;;;;;4.70;4.20;;;;;;;4.83;100.00;101378.00;5070833;28;20182;-75
2022/01/29 03:18:00;;;;;;;7.10;6.50;;;;;;;4.81;100.00;101363.09;5070928;28;20179;-74
2022/01/29 03:20:26;;;;;;;4.13;3.73;;;;;;;4.79;100.00;101371.47;5072187;28;20702;-75
2022/01/29 03:22:51;;;;;;;6.47;5.87;;;;;;;4.77;100.00;101370.88;5071967;28;20724;-74
2022/01/29 03:25:16;;;;;;;11.17;7.80;;;;;;;4.76;100.00;101363.81;5071975;28;20170;-73
2022/01/29 03:27:42;;;;;;;9.80;5.43;;;;;;;4.74;100.00;101347.84;5072047;28;20246;-74
2022/01/29 03:30:09;;;;;;;6.97;5.37;;;;;;;4.72;100.00;101335.63;5070665;28;20178;-76
2022/01/29 03:32:34;;;;;;;10.33;6.77;;;;;;;4.68;100.00;101331.78;5070688;28;20170;-76
2022/01/29 03:35:00;;;;;;;8.13;5.83;;;;;;;4.65;100.00;101335.81;5071720;28;20174;-74
2022/01/29 03:37:25;;;;;;;4.37;4.07;;;;;;;4.63;100.00;101327.13;5070482;28;20175;-73
2022/01/29 03:39:51;;;;;;;14.87;10.77;;;;;;;4.65;100.00;101332.28;5071792;28;20213;-74
2022/01/29 03:42:17;;;;;;;4.47;4.07;;;;;;;4.64;100.00;101320.66;5071074;28;20174;-74
2022/01/29 03:44:42;;;;;;;7.20;5.00;;;;;;;4.66;100.00;101326.63;5070427;28;20541;-74
2022/01/29 03:47:08;;;;;;;7.27;5.93;;;;;;;4.68;100.00;101321.78;5071699;28;20196;-74
2022/01/29 03:49:33;;;;;;;4.80;4.30;;;;;;;4.69;100.00;101323.41;5070314;28;20551;-73
2022/01/29 03:51:59;;;;;;;6.40;5.07;;;;;;;4.68;100.00;101329.09;5071547;28;20214;-73
2022/01/29 03:54:24;;;;;;;11.83;7.00;;;;;;;4.67;100.00;101343.69;5070155;28;20185;-76
2022/01/29 03:56:50;;;;;;;7.63;6.27;;;;;;;4.67;100.00;101328.25;5071227;28;20249;-74
2022/01/29 03:59:15;;;;;;;8.10;5.03;;;;;;;4.67;100.00;101312.03;5070120;28;20716;-74
2022/01/29 04:01:40;;;;;;;7.20;4.30;;;;;;;4.67;100.00;101313.91;5071367;28;20182;-73
2022/01/29 04:04:06;;;;;;;11.93;7.90;;;;;;;4.68;100.00;101300.13;5070039;28;20599;-74
2022/01/29 04:06:31;;;;;;;8.00;7.20;;;;;;;4.69;100.00;101290.94;5071157;28;20171;-74
2022/01/29 04:08:57;;;;;;;13.37;7.63;;;;;;;4.68;100.00;101297.41;5071146;28;20210;-74
2022/01/29 04:11:23;;;;;;;8.23;7.43;;;;;;;4.65;100.00;101286.28;5071297;28;20806;-74
2022/01/29 04:13:49;;;;;;;6.67;3.07;;;;;;;4.64;100.00;101277.34;5069913;28;20548;-74
2022/01/29 04:16:16;;;;;;;9.87;4.27;;;;;;;4.62;100.00;101270.53;5069793;28;20189;-74
2022/01/29 04:18:42;;;;;;;16.13;8.17;;;;;;;4.60;100.00;101265.38;5069793;28;20256;-76
2022/01/29 04:21:08;;;;;;;8.37;4.23;;;;;;;4.61;100.00;101271.59;5070076;28;20261;-74
2022/01/29 04:23:34;;;;;;;2.17;1.87;;;;;;;4.63;100.00;101261.34;5069593;28;20665;-75
2022/01/29 04:26:01;;;;;;;4.90;4.60;;;;;;;4.62;100.00;101257.81;5069630;28;20178;-74
2022/01/29 04:28:31;;;;;;;13.53;10.37;;;;;;;4.63;100.00;101254.06;5071035;28;20277;-74
2022/01/29 04:31:01;;;;;;;9.20;4.13;;;;;;;4.64;100.00;101252.19;5069856;28;20177;-76
2022/01/29 04:33:29;;;;;;;7.07;6.30;;;;;;;4.66;100.00;101250.03;5070731;28;20170;-74
2022/01/29 04:35:57;;;;;;;12.73;6.53;;;;;;;4.65;100.00;101241.09;5069545;28;20179;-75
2022/01/29 04:38:23;;;;;;;8.27;7.13;;;;;;;4.71;100.00;101218.41;5070754;28;20177;-76
2022/01/29 04:40:48;;;;;;;8.07;5.53;;;;;;;4.73;100.00;101226.28;5070846;28;20183;-74
2022/01/29 04:43:13;;;;;;;5.93;5.27;;;;;;;4.74;100.00;101220.63;5069543;28;20181;-75
2022/01/29 04:45:40;;;;;;;9.47;5.03;;;;;;;4.78;100.00;101210.94;5070473;28;20255;-77
2022/01/29 04:48:06;;;;;;;3.80;3.50;;;;;;;4.80;100.00;101199.03;5069490;28;20183;-74
2022/01/29 04:50:31;;;;;;;5.27;4.83;;;;;;;4.77;100.00;101211.16;5070679;28;20185;-74
2022/01/29 04:52:56;;;;;;;10.17;9.07;;;;;;;4.76;100.00;101204.94;5070572;28;20177;-74
2022/01/29 04:55:22;;;;;;;8.10;7.40;;;;;;;4.76;100.00;101212.25;5070613;28;20650;-73
2022/01/29 04:57:47;;;;;;;9.03;6.97;;;;;;;4.76;100.00;101193.28;5070538;28;20182;-75
2022/01/29 05:00:21;;;;;;;5.33;4.63;;;;;;;4.76;100.00;101193.28;5069275;28;20202;-74
2022/01/29 05:02:47;;;;;;;8.83;5.43;;;;;;;4.75;100.00;101178.94;5070777;28;20174;-73
2022/01/29 05:05:13;;;;;;;4.60;3.90;;;;;;;4.75;100.00;101162.69;5070508;28;20185;-77
2022/01/29 05:07:38;;;;;;;6.57;6.00;;;;;;;4.78;100.00;101180.34;5069365;28;20175;-73
2022/01/29 05:10:04;;;;;;;11.30;10.10;;;;;;;4.77;100.00;101162.44;5070582;28;20239;-75
2022/01/29 05:12:44;;;;;;;4.00;3.67;;;;;;;4.77;100.00;101167.84;5069177;28;20186;-76
2022/01/29 05:28:43;;;;;;;5.30;4.80;;;;;;;4.85;100.00;101161.19;5070765;28;20214;-74
2022/01/29 05:31:08;;;;;;;5.47;4.97;;;;;;;4.86;100.00;101151.97;5068916;28;20187;-74
2022/01/29 05:33:34;;;;;;;6.00;3.97;;;;;;;4.90;100.00;101161.22;5069032;28;20278;-74
2022/01/29 05:35:59;;;;;;;6.33;5.83;;;;;;;4.94;100.00;101165.06;5070263;28;20626;-77
2022/01/29 05:38:27;;;;;;;6.33;5.83;;;;;;;4.93;100.00;101155.31;5068861;28;20171;-74
2022/01/29 05:40:52;;;;;;;4.63;4.23;;;;;;;4.95;100.00;101158.59;5069053;28;20175;-75
2022/01/29 05:43:18;;;;;;;4.13;3.83;;;;;;;4.97;100.00;101146.41;5070296;28;20179;-74
2022/01/29 05:45:43;;;;;;;4.50;4.10;;;;;;;5.01;100.00;101144.00;5068598;28;20210;-74
2022/01/29 05:48:08;;;;;;;3.20;3.00;;;;;;;5.04;100.00;101160.53;5070153;28;20179;-74
2022/01/29 05:50:34;;;;;;;5.00;4.27;;;;;;;5.06;100.00;101152.16;5070115;28;20183;-74
2022/01/29 05:52:59;;;;;;;7.07;3.63;;;;;;;5.06;100.00;101155.72;5069957;28;20174;-74
2022/01/29 05:55:24;;;;;;;4.53;4.13;;;;;;;5.13;100.00;101139.25;5069924;28;20322;-75
2022/01/29 05:57:50;;;;;;;4.90;3.20;;;;;;;5.19;100.00;101151.75;5069814;28;20166;-75
2022/01/29 06:00:16;;;;;;;6.40;5.17;;;;;;;5.20;100.00;101153.38;5069980;28;20252;-78
2022/01/29 06:02:41;;;;;;;2.20;2.00;;;;;;;5.25;100.00;101142.59;5069980;28;20202;-74
2022/01/29 06:05:07;;;;;;;3.57;3.27;;;;;;;5.31;100.00;101151.56;5071434;28;20212;-76
2022/01/29 06:07:32;;;;;;;3.80;3.50;;;;;;;5.31;100.00;101133.41;5073513;28;20173;-73
2022/01/29 06:09:57;;;;;;;3.80;3.40;;;;;;;5.34;100.00;101135.59;5073860;28;20194;-75
2022/01/29 06:12:24;;;;;;;5.73;4.77;;;;;;;5.36;100.00;101140.78;5072164;28;20700;-74
2022/01/29 06:14:50;;;;;;;2.27;2.13;;;;;;;5.38;100.00;101131.31;5073281;28;20174;-74
2022/01/29 06:17:15;;;;;;;1.47;1.37;;;;;;;5.38;100.00;101125.91;5072137;28;20174;-74
2022/01/29 06:19:41;;;;;;;4.17;3.80;;;;;;;5.41;100.00;101129.97;5072025;28;20206;-75
2022/01/29 06:22:10;;;;;;;2.87;2.67;;;;;;;5.48;100.00;101146.81;5073588;28;20202;-75
2022/01/29 06:24:35;;;;;;;5.07;3.03;;;;;;;5.50;100.00;101141.97;5071706;28;20186;-74
2022/01/29 06:27:01;;;;;;;3.50;3.30;;;;;;;5.52;100.00;101118.13;5071494;28;20186;-74
2022/01/29 06:29:26;;;;;;;4.83;4.43;;;;;;;5.50;100.00;101127.63;5073047;28;20513;-74
2022/01/29 06:31:51;;;;;;;3.80;3.47;;;;;;;5.51;100.00;101115.69;5071857;28;20623;-74
2022/01/29 06:34:17;;;;;;;6.60;6.00;;;;;;;5.49;100.00;101109.69;5073111;28;20699;-74
2022/01/29 06:36:42;;;;;;;7.73;5.53;;;;;;;5.51;100.00;101102.97;5072929;28;20622;-73
2022/01/29 06:39:07;;;;;;;6.23;5.63;;;;;;;5.51;100.00;101111.09;5072958;28;20210;-75
2022/01/29 06:41:33;;;;;;;3.17;2.77;;;;;;;5.55;100.00;101103.25;5072838;28;20224;-75
2022/01/29 06:43:58;;;;;;;12.10;8.87;;;;;;;5.59;100.00;101093.50;5071632;28;20665;-75
2022/01/29 06:46:23;;;;;;;12.80;7.80;;;;;;;5.56;100.00;101104.88;5071176;28;20626;-73
2022/01/29 06:48:49;;;;;;;5.53;5.03;;;;;;;5.54;100.00;101099.72;5071490;28;20174;-74
2022/01/29 06:51:16;;;;;;;4.40;3.93;;;;;;;5.57;100.00;101115.44;5072536;28;20171;-76
2022/01/29 06:53:41;;;;;;;5.17;4.77;;;;;;;5.59;100.00;101109.78;5072547;28;20182;-74
2022/01/29 06:56:07;;;;;;;13.63;5.47;;;;;;;5.62;100.00;101106.53;5071050;28;20183;-75
2022/01/29 06:58:33;;;;;;;6.77;5.43;;;;;;;5.64;100.00;101096.22;5072534;28;20623;-74
2022/01/29 07:00:58;;;;;;;5.93;5.43;;;;;;;5.65;100.00;101097.91;5072603;28;20171;-73
2022/01/29 07:03:24;;;;;;;9.93;9.10;;;;;;;5.66;100.00;101105.75;5072400;28;20186;-75
2022/01/29 07:05:49;;;;;;;7.80;6.23;;;;;;;5.69;100.00;101109.84;5072282;28;20242;-75
2022/01/29 07:08:15;;;;;;;6.37;5.87;;;;;;;5.68;100.00;101087.34;5072298;28;20167;-74
2022/01/29 07:10:40;;;;;;;5.37;4.87;;;;;;;5.65;100.00;101092.47;5072261;28;20178;-74
2022/01/29 07:13:06;;;;;;;4.70;4.27;;;;;;;5.66;100.00;101080.56;5071109;28;20592;-74
2022/01/29 07:15:32;;;;;;;6.80;6.27;;;;;;;5.65;100.00;101076.22;5071453;28;20171;-75
2022/01/29 07:17:57;;;;;;;6.37;4.37;;;;;;;5.66;100.00;101072.41;5070268;28;20681;-73
2022/01/29 07:20:23;;;;;;;6.17;5.57;;;;;;;5.67;100.00;101064.03;5070767;28;20217;-75
2022/01/29 07:22:48;;;;;;;5.37;4.23;;;;;;;5.68;100.00;101054.00;5071959;28;20224;-75
2022/01/29 07:25:14;;;;;;;7.53;5.07;;;;;;;5.68;100.00;101049.38;5072016;28;20181;-75
2022/01/29 07:27:39;;;;;;;7.30;6.57;;;;;;;5.71;100.00;101069.72;5070647;28;20227;-74
2022/01/29 07:30:05;;;;;;;5.73;5.23;;;;;;;5.75;100.00;101065.41;5072001;28;20175;-73
2022/01/29 07:32:31;;;;;;;4.33;3.73;;;;;;;5.75;100.00;101059.97;5071992;28;20178;-75
2022/01/29 07:34:57;;;;;;;6.67;4.03;;;;;;;5.76;100.00;101058.91;5071598;28;20178;-75
2022/01/29 07:37:23;;;;;;;6.73;6.17;;;;;;;5.77;100.00;101054.28;5070606;28;20183;-74
2022/01/29 07:39:48;;;;;;;5.80;5.13;;;;;;;5.76;100.00;101050.75;5070461;28;20272;-73
2022/01/29 07:42:13;;;;;;;4.87;4.47;;;;;;;5.78;100.00;101048.59;5070561;28;20171;-76
2022/01/29 07:44:39;;;;;;;6.90;4.37;;;;;;;5.79;100.00;101052.16;5070388;28;20232;-76
2022/01/29 07:47:04;;;;;;;7.07;5.10;;;;;;;5.81;100.00;101053.50;5071562;28;20630;-74
2022/01/29 07:49:30;;;;;;;5.90;5.30;;;;;;;5.84;100.00;101052.97;5072417;28;20179;-73
2022/01/29 07:51:55;;;;;;;7.80;4.60;;;;;;;5.84;100.00;101042.13;5080904;28;20217;-74
2022/01/29 07:54:21;;;;;;;4.03;3.63;;;;;;;5.86;100.00;101067.09;5072778;28;20402;-77
2022/01/29 07:56:46;;;;;;;4.40;4.00;;;;;;;5.87;100.00;101054.34;5069774;28;20202;-75
2022/01/29 07:59:11;;;;;;;4.73;4.33;;;;;;;5.88;100.00;101066.81;5071223;28;20714;-74
2022/01/29 08:01:37;;;;;;;6.87;6.27;;;;;;;5.88;100.00;101042.41;5084859;28;20719;-73
2022/01/29 08:04:02;;;;;;;4.70;4.20;;;;;;;5.92;100.00;101044.34;5084980;28;20222;-76
2022/01/29 08:06:29;;;;;;;7.63;3.67;;;;;;;5.93;100.00;101018.03;5077832;28;20631;-74
2022/01/29 08:08:55;;;;;;;8.20;5.03;;;;;;;5.94;100.00;101020.53;5070041;28;20204;-75
2022/01/29 08:11:20;;;;;;;3.43;3.13;;;;;;;5.94;100.00;101039.50;5071654;28;20711;-76
2022/01/29 08:13:46;;;;;;;7.27;3.63;;;;;;;5.96;100.00;101012.94;5071606;28;20178;-73
2022/01/29 08:16:12;;;;;;;4.57;3.33;;;;;;;6.01;100.00;101030.28;5069956;28;20654;-73
2022/01/29 08:18:37;;;;;;;4.77;4.37;;;;;;;6.04;100.00;101022.44;5069819;28;20665;-74
2022/01/29 08:21:03;;;;;;;6.63;6.00;;;;;;;6.07;100.00;101002.09;5071198;28;20205;-74
2022/01/29 08:23:28;;;;;;;4.47;3.13;;;;;;;6.09;100.00;101014.31;5071102;28;20182;-74
2022/01/29 08:25:53;;;;;;;5.83;5.33;;;;;;;6.13;100.00;101001.03;5069580;28;20173;-74
2022/01/29 08:28:19;;;;;;;4.00;3.63;;;;;;;6.12;100.00;101012.97;5069328;28;20209;-73
2022/01/29 08:30:45;;;;;;;5.03;4.53;;;;;;;6.14;100.00;101011.59;5070945;28;20257;-74
2022/01/29 08:33:16;;;;;;;2.73;2.53;;;;;;;6.17;100.00;101021.91;5069557;28;20177;-74
2022/01/29 08:35:42;;;;;;;7.47;6.77;;;;;;;6.19;100.00;101013.50;5070808;28;20170;-74
2022/01/29 08:38:07;;;;;;;10.73;6.07;;;;;;;6.20;100.00;101018.66;5069623;28;20686;-73
2022/01/29 08:40:32;;;;;;;3.93;3.50;;;;;;;6.22;100.00;101016.53;5070800;28;20666;-73
2022/01/29 08:42:57;;;;;;;4.10;3.80;;;;;;;6.21;100.00;101011.34;5070751;28;20635;-75
2022/01/29 08:45:23;;;;;;;7.43;6.67;;;;;;;6.18;100.00;101001.84;5070600;28;20602;-73
2022/01/29 08:47:48;;;;;;;6.70;6.10;;;;;;;6.20;100.00;101004.28;5069295;28;20265;-76
2022/01/29 08:50:14;;;;;;;7.07;6.40;;;;;;;6.22;100.00;101004.81;5069542;28;20251;-74
2022/01/29 08:52:40;;;;;;;7.43;6.30;;;;;;;6.24;100.00;100992.66;5070647;28;20175;-74
2022/01/29 08:55:08;;;;;;;8.93;8.17;;;;;;;6.25;100.00;101012.47;5070570;28;20526;-76
2022/01/29 08:57:34;;;;;;;5.33;4.83;;;;;;;6.27;100.00;101007.56;5069398;28;20623;-73
2022/01/29 09:00:00;;;;;;;7.77;6.97;;;;;;;6.25;100.00;100999.69;5069060;28;20220;-74
2022/01/29 09:02:26;;;;;;;8.73;7.60;;;;;;;6.26;100.00;100995.91;5069326;28;20202;-73
2022/01/29 09:04:54;;;;;;;11.33;6.97;;;;;;;6.28;100.00;100981.25;5070356;28;20215;-75
2022/01/29 09:07:20;;;;;;;6.67;6.13;;;;;;;6.25;100.00;100993.47;5069279;28;20178;-76
2022/01/29 09:09:46;;;;;;;5.43;4.93;;;;;;;6.25;100.00;101004.31;5069224;28;20185;-77
2022/01/29 09:12:12;;;;;;;4.03;3.73;;;;;;;6.23;100.00;100991.03;5069249;28;20175;-73
2022/01/29 09:14:38;;;;;;;15.93;8.33;;;;;;;6.22;100.00;100983.13;5069135;28;20186;-73
2022/01/29 09:17:04;;;;;;;7.57;6.83;;;;;;;6.25;100.00;100969.03;5069089;28;20498;-78
2022/01/29 09:19:29;;;;;;;9.83;7.57;;;;;;;6.26;100.00;100976.91;5070466;28;20556;-77
2022/01/29 09:21:55;;;;;;;11.40;7.87;;;;;;;6.27;100.00;100991.28;5069164;28;20220;-76
2022/01/29 09:24:20;;;;;;;10.93;5.27;;;;;;;6.29;100.00;100972.03;5068928;28;20569;-77
2022/01/29 09:26:45;;;;;;;4.13;3.63;;;;;;;6.28;100.00;100984.78;5070301;28;20178;-79
2022/01/29 09:29:11;;;;;;;8.20;6.30;;;;;;;6.29;100.00;100986.41;5070352;28;20179;-72
2022/01/29 09:31:36;;;;;;;5.37;4.87;;;;;;;6.30;100.00;100962.81;5068964;28;20174;-73
2022/01/29 09:34:02;;;;;;;9.47;5.90;;;;;;;6.31;100.00;100969.84;5070303;28;20638;-72
2022/01/29 09:36:28;;;;;;;8.67;4.13;;;;;;;6.30;100.00;100968.22;5068891;28;20197;-74
2022/01/29 09:38:53;;;;;;;7.80;7.13;;;;;;;6.30;100.00;100968.22;5070096;28;20201;-74
2022/01/29 09:41:23;;;;;;;9.90;4.63;;;;;;;6.28;100.00;100976.63;5072771;28;20174;-72
2022/01/29 09:43:48;;;;;;;6.17;5.57;;;;;;;6.24;100.00;100976.38;5072782;28;20182;-74
2022/01/29 09:46:16;;;;;;;10.37;9.03;;;;;;;6.22;100.00;100966.84;5073814;28;20179;-73
2022/01/29 09:48:43;;;;;;;7.43;6.33;;;;;;;6.22;100.00;100974.97;5072947;28;20219;-72
2022/01/29 09:51:12;;;;;;;9.57;6.83;;;;;;;6.18;100.00;100974.72;5072538;28;20179;-72
2022/01/29 09:53:38;;;;;;;6.60;4.67;;;;;;;6.16;100.00;100957.91;5072256;28;20185;-72
2022/01/29 09:56:04;;;;;;;12.20;8.57;;;;;;;6.15;100.00;100960.88;5073113;28;20174;-72
2022/01/29 09:58:29;;;;;;;5.57;5.07;;;;;;;6.15;100.00;100964.41;5073486;28;20178;-72
2022/01/29 10:00:54;;;;;;;18.10;7.20;;;;;;;6.15;100.00;100952.75;5072124;28;20230;-73
2022/01/29 10:03:20;;;;;;;10.03;7.40;;;;;;;6.19;100.00;100953.81;5072229;28;20668;-72
2022/01/29 10:05:51;;;;;;;9.97;6.37;;;;;;;6.20;100.00;100950.03;5073116;28;20174;-72
2022/01/29 10:08:18;;;;;;;9.03;8.17;;;;;;;6.22;100.00;100956.84;5073338;28;20252;-72
2022/01/29 10:10:56;;;;;;;6.93;4.60;;;;;;;6.26;100.00;100952.50;5072655;28;20255;-72
2022/01/29 10:13:29;;;;;;;10.03;8.07;;;;;;;6.30;100.00;100924.81;5073307;28;20177;-72
2022/01/29 10:16:20;;;;;;;6.67;5.87;;;;;;;6.38;100.00;100932.44;5071919;28;20216;-73
2022/01/29 10:19:00;;;;;;;6.93;6.23;;;;;;;6.44;100.00;100929.44;5073534;28;20202;-72
2022/01/29 10:21:29;;;;;;;4.27;3.87;;;;;;;6.47;100.00;100915.31;5071996;28;20178;-72
2022/01/29 10:24:04;;;;;;;5.60;2.00;;;;;;;6.50;100.00;100922.91;5072929;28;20220;-71
2022/01/29 10:26:37;;;;;;;3.20;2.50;;;;;;;6.55;100.00;100903.09;5072756;28;20162;-72
2022/01/29 10:29:06;;;;;;;5.50;3.70;;;;;;;6.59;100.00;100904.16;5071520;28;20236;-72
2022/01/29 10:31:42;;;;;;;2.67;2.43;;;;;;;6.63;100.00;100897.09;5071567;28;20170;-72
2022/01/29 10:34:21;;;;;;;3.00;2.80;;;;;;;6.66;100.00;100898.47;5071532;28;20206;-73
2022/01/29 10:37:12;;;;;;;6.73;2.73;;;;;;;6.70;100.00;100883.25;5072724;28;20181;-72
2022/01/29 10:39:39;;;;;;;2.73;2.53;;;;;;;6.73;100.00;100877.28;5071572;28;20214;-73
2022/01/29 10:42:38;;;;;;;3.40;3.10;;;;;;;6.78;100.00;100878.06;5072959;28;20228;-72
2022/01/29 10:45:06;;;;;;;2.90;2.70;;;;;;;6.85;100.00;100878.59;5063676;28;20197;-72
2022/01/29 10:47:52;;;;;;;2.03;1.90;;;;;;;6.91;100.00;100886.72;5072570;28;20174;-72
2022/01/29 10:50:17;;;;;;;2.37;1.73;;;;;;;6.92;100.00;100881.00;5072525;28;20170;-73
2022/01/29 10:52:43;;;;;;;2.03;1.80;;;;;;;6.93;100.00;100879.91;5072896;28;20483;-73
2022/01/29 10:55:09;;;;;;;2.80;2.27;;;;;;;6.96;100.00;100878.59;5071054;28;20232;-73
2022/01/29 10:57:36;;;;;;;1.83;1.67;;;;;;;6.98;100.00;100870.97;5072230;28;20220;-73
2022/01/29 11:00:06;;;;;;;2.00;1.80;;;;;;;7.00;100.00;100864.16;5072191;28;20202;-73
2022/01/29 11:02:32;;;;;;;2.43;1.77;;;;;;;7.03;100.00;100857.34;5071164;28;20189;-72
2022/01/29 11:05:00;;;;;;;3.07;1.87;;;;;;;7.06;100.00;100856.78;5072436;28;20257;-73
2022/01/29 11:07:27;;;;;;;2.40;2.10;;;;;;;7.12;100.00;100853.78;5072379;28;20183;-73
2022/01/29 11:09:53;;;;;;;1.93;1.23;;;;;;;7.17;100.00;100839.38;5072170;28;20177;-73
2022/01/29 11:12:26;;;;;;;3.10;2.43;;;;;;;7.21;100.00;100831.47;5070725;28;20537;-73
2022/01/29 11:14:54;;;;;;;1.63;1.53;;;;;;;7.21;100.00;100824.13;5070723;28;20566;-73
2022/01/29 11:17:23;;;;;;;2.07;1.90;;;;;;;7.25;100.00;100821.69;5072172;28;20185;-73
2022/01/29 11:19:48;;;;;;;0.47;0.47;;;;;;;7.30;100.00;100822.44;5070675;28;20272;-72
2022/01/29 11:22:20;;;;;;;3.50;1.60;;;;;;;7.31;100.00;100815.09;5071912;28;20179;-73
2022/01/29 11:24:47;;;;;;;3.17;2.53;;;;;;;7.33;100.00;100813.72;5070321;28;20201;-73
2022/01/29 11:27:21;;;;;;;3.07;1.00;;;;;;;7.36;100.00;100817.78;5071755;28;20175;-73
2022/01/29 11:29:57;;;;;;;2.93;1.47;;;;;;;7.40;100.00;100821.59;5071898;28;20678;-72
2022/01/29 11:32:22;;;;;;;2.47;1.67;;;;;;;7.45;100.00;100794.38;5070509;28;20227;-73
2022/01/29 11:35:18;;;;;;;1.03;0.67;;;;;;;7.51;100.00;100786.97;5071668;28;20174;-73
2022/01/29 11:37:57;;;;;;;1.87;1.63;;;;;;;7.54;100.00;100792.69;5070363;28;20182;-72